sensor_id;sensor_type;location;lat;lon;timestamp;P1;durP1;ratioP1;P2;durP2;ratioP2
58083;SDS011;43882;51.550;11.858;2024-03-29T00:00:59;11.18;;;2.92;;
58083;SDS011;43882;51.550;11.858;2024-03-29T00:03:27;10.60;;;2.80;;
58083;SDS011;43882;51.550;11.858;2024-03-29T00:05:53;11.75;;;2.88;;
58083;SDS011;43882;51.550;11.858;2024-03-29T00:08:19;9.70;;;2.88;;
58083;SDS011;43882;51.550;11.858;2024-03-29T00:10:46;12.52;;;2.75;;
58083;SDS011;43882;51.550;11.858;2024-03-29T00:13:12;11.25;;;2.72;;
58083;SDS011;43882;51.550;11.858;2024-03-29T00:15:39;11.07;;;2.92;;
58083;SDS011;43882;51.550;11.858;2024-03-29T00:18:06;10.18;;;2.60;;
58083;SDS011;43882;51.550;11.858;2024-03-29T00:20:32;11.07;;;2.80;;
58083;SDS011;43882;51.550;11.858;2024-03-29T00:22:58;10.95;;;2.63;;
58083;SDS011;43882;51.550;11.858;2024-03-29T00:25:24;8.95;;;2.20;;
58083;SDS011;43882;51.550;11.858;2024-03-29T00:27:50;8.57;;;2.50;;
58083;SDS011;43882;51.550;11.858;2024-03-29T00:30:16;8.05;;;2.33;;
58083;SDS011;43882;51.550;11.858;2024-03-29T00:32:42;10.48;;;3.15;;
58083;SDS011;43882;51.550;11.858;2024-03-29T00:35:08;9.55;;;2.50;;
58083;SDS011;43882;51.550;11.858;2024-03-29T00:37:34;8.95;;;2.60;;
58083;SDS011;43882;51.550;11.858;2024-03-29T00:40:00;9.75;;;2.40;;
58083;SDS011;43882;51.550;11.858;2024-03-29T00:42:27;8.68;;;2.22;;
58083;SDS011;43882;51.550;11.858;2024-03-29T00:44:53;6.90;;;2.00;;
58083;SDS011;43882;51.550;11.858;2024-03-29T00:47:19;5.95;;;2.03;;
58083;SDS011;43882;51.550;11.858;2024-03-29T00:49:45;9.00;;;2.20;;
58083;SDS011;43882;51.550;11.858;2024-03-29T00:52:11;8.90;;;2.20;;
58083;SDS011;43882;51.550;11.858;2024-03-29T00:54:38;5.45;;;1.80;;
58083;SDS011;43882;51.550;11.858;2024-03-29T00:57:04;8.55;;;2.10;;
58083;SDS011;43882;51.550;11.858;2024-03-29T00:59:31;6.57;;;2.10;;
58083;SDS011;43882;51.550;11.858;2024-03-29T01:01:57;5.18;;;1.90;;
58083;SDS011;43882;51.550;11.858;2024-03-29T01:04:24;5.40;;;2.20;;
58083;SDS011;43882;51.550;11.858;2024-03-29T01:06:50;6.38;;;1.88;;
58083;SDS011;43882;51.550;11.858;2024-03-29T01:09:16;6.53;;;1.88;;
58083;SDS011;43882;51.550;11.858;2024-03-29T01:11:42;9.45;;;2.15;;
58083;SDS011;43882;51.550;11.858;2024-03-29T01:14:08;7.60;;;2.20;;
58083;SDS011;43882;51.550;11.858;2024-03-29T01:16:34;7.30;;;2.00;;
58083;SDS011;43882;51.550;11.858;2024-03-29T01:19:00;7.38;;;2.08;;
58083;SDS011;43882;51.550;11.858;2024-03-29T01:21:26;6.78;;;2.20;;
58083;SDS011;43882;51.550;11.858;2024-03-29T01:23:52;8.13;;;2.10;;
58083;SDS011;43882;51.550;11.858;2024-03-29T01:26:18;8.40;;;1.98;;
58083;SDS011;43882;51.550;11.858;2024-03-29T01:28:45;7.95;;;2.00;;
58083;SDS011;43882;51.550;11.858;2024-03-29T01:31:11;7.15;;;1.95;;
58083;SDS011;43882;51.550;11.858;2024-03-29T01:33:38;7.47;;;1.90;;
58083;SDS011;43882;51.550;11.858;2024-03-29T01:36:05;5.00;;;1.85;;
58083;SDS011;43882;51.550;11.858;2024-03-29T01:38:31;8.00;;;2.10;;
58083;SDS011;43882;51.550;11.858;2024-03-29T01:40:57;8.40;;;2.30;;
58083;SDS011;43882;51.550;11.858;2024-03-29T01:43:23;6.75;;;2.10;;
58083;SDS011;43882;51.550;11.858;2024-03-29T01:45:51;8.13;;;2.20;;
58083;SDS011;43882;51.550;11.858;2024-03-29T01:48:18;4.80;;;1.90;;
58083;SDS011;43882;51.550;11.858;2024-03-29T01:50:48;6.50;;;1.92;;
58083;SDS011;43882;51.550;11.858;2024-03-29T01:53:15;8.40;;;2.00;;
58083;SDS011;43882;51.550;11.858;2024-03-29T01:55:42;7.68;;;2.17;;
58083;SDS011;43882;51.550;11.858;2024-03-29T01:58:09;5.90;;;2.00;;
58083;SDS011;43882;51.550;11.858;2024-03-29T02:00:36;8.52;;;1.90;;
58083;SDS011;43882;51.550;11.858;2024-03-29T02:03:03;6.28;;;2.20;;
58083;SDS011;43882;51.550;11.858;2024-03-29T02:05:34;8.57;;;2.35;;
58083;SDS011;43882;51.550;11.858;2024-03-29T02:08:01;8.63;;;2.13;;
58083;SDS011;43882;51.550;11.858;2024-03-29T02:10:29;7.10;;;2.08;;
58083;SDS011;43882;51.550;11.858;2024-03-29T02:12:55;10.13;;;2.30;;
58083;SDS011;43882;51.550;11.858;2024-03-29T02:15:21;11.27;;;2.60;;
58083;SDS011;43882;51.550;11.858;2024-03-29T02:17:47;10.90;;;2.60;;
58083;SDS011;43882;51.550;11.858;2024-03-29T02:20:13;11.50;;;2.72;;
58083;SDS011;43882;51.550;11.858;2024-03-29T02:22:41;12.50;;;2.80;;
58083;SDS011;43882;51.550;11.858;2024-03-29T02:25:12;9.13;;;2.50;;
58083;SDS011;43882;51.550;11.858;2024-03-29T02:27:38;11.60;;;2.70;;
58083;SDS011;43882;51.550;11.858;2024-03-29T02:30:05;9.77;;;2.35;;
58083;SDS011;43882;51.550;11.858;2024-03-29T02:32:32;9.18;;;2.40;;
58083;SDS011;43882;51.550;11.858;2024-03-29T02:34:58;11.90;;;2.65;;
58083;SDS011;43882;51.550;11.858;2024-03-29T02:37:24;12.68;;;2.60;;
58083;SDS011;43882;51.550;11.858;2024-03-29T02:39:50;10.38;;;2.50;;
58083;SDS011;43882;51.550;11.858;2024-03-29T02:42:16;9.63;;;2.42;;
58083;SDS011;43882;51.550;11.858;2024-03-29T02:44:42;9.95;;;2.30;;
58083;SDS011;43882;51.550;11.858;2024-03-29T02:47:08;10.20;;;2.35;;
58083;SDS011;43882;51.550;11.858;2024-03-29T02:49:34;9.88;;;2.50;;
58083;SDS011;43882;51.550;11.858;2024-03-29T02:52:00;8.68;;;2.35;;
58083;SDS011;43882;51.550;11.858;2024-03-29T02:54:26;8.88;;;2.35;;
58083;SDS011;43882;51.550;11.858;2024-03-29T02:56:52;7.95;;;2.10;;
58083;SDS011;43882;51.550;11.858;2024-03-29T02:59:18;10.23;;;2.20;;
58083;SDS011;43882;51.550;11.858;2024-03-29T03:01:44;8.48;;;2.22;;
58083;SDS011;43882;51.550;11.858;2024-03-29T03:04:10;7.85;;;2.20;;
58083;SDS011;43882;51.550;11.858;2024-03-29T03:06:37;10.98;;;2.50;;
58083;SDS011;43882;51.550;11.858;2024-03-29T03:09:03;11.07;;;2.58;;
58083;SDS011;43882;51.550;11.858;2024-03-29T03:11:47;7.47;;;2.30;;
58083;SDS011;43882;51.550;11.858;2024-03-29T03:14:13;9.68;;;2.50;;
58083;SDS011;43882;51.550;11.858;2024-03-29T03:16:39;7.80;;;2.20;;
58083;SDS011;43882;51.550;11.858;2024-03-29T03:19:05;11.00;;;2.15;;
58083;SDS011;43882;51.550;11.858;2024-03-29T03:21:31;8.73;;;2.08;;
58083;SDS011;43882;51.550;11.858;2024-03-29T03:23:57;7.65;;;2.20;;
58083;SDS011;43882;51.550;11.858;2024-03-29T03:26:24;10.75;;;2.42;;
58083;SDS011;43882;51.550;11.858;2024-03-29T03:28:50;7.80;;;2.50;;
58083;SDS011;43882;51.550;11.858;2024-03-29T03:31:16;11.05;;;2.30;;
58083;SDS011;43882;51.550;11.858;2024-03-29T03:33:43;13.13;;;2.75;;
58083;SDS011;43882;51.550;11.858;2024-03-29T03:36:09;11.90;;;2.40;;
58083;SDS011;43882;51.550;11.858;2024-03-29T03:38:35;9.93;;;2.75;;
58083;SDS011;43882;51.550;11.858;2024-03-29T03:41:02;12.80;;;2.90;;
58083;SDS011;43882;51.550;11.858;2024-03-29T03:43:28;9.65;;;2.70;;
58083;SDS011;43882;51.550;11.858;2024-03-29T03:45:59;9.65;;;2.65;;
58083;SDS011;43882;51.550;11.858;2024-03-29T03:48:26;11.63;;;2.80;;
58083;SDS011;43882;51.550;11.858;2024-03-29T03:50:56;12.70;;;2.83;;
58083;SDS011;43882;51.550;11.858;2024-03-29T03:53:22;13.18;;;2.88;;
58083;SDS011;43882;51.550;11.858;2024-03-29T03:55:48;10.98;;;2.75;;
58083;SDS011;43882;51.550;11.858;2024-03-29T03:58:14;12.85;;;2.92;;
58083;SDS011;43882;51.550;11.858;2024-03-29T04:00:40;12.43;;;2.60;;
58083;SDS011;43882;51.550;11.858;2024-03-29T04:03:06;9.98;;;2.40;;
58083;SDS011;43882;51.550;11.858;2024-03-29T04:05:32;10.65;;;2.22;;
58083;SDS011;43882;51.550;11.858;2024-03-29T04:08:01;8.00;;;2.15;;
58083;SDS011;43882;51.550;11.858;2024-03-29T04:10:27;7.82;;;2.17;;
58083;SDS011;43882;51.550;11.858;2024-03-29T04:12:53;6.97;;;2.00;;
58083;SDS011;43882;51.550;11.858;2024-03-29T04:15:19;9.63;;;2.30;;
58083;SDS011;43882;51.550;11.858;2024-03-29T04:17:45;11.45;;;2.50;;
58083;SDS011;43882;51.550;11.858;2024-03-29T04:20:11;12.10;;;2.72;;
58083;SDS011;43882;51.550;11.858;2024-03-29T04:22:37;8.70;;;2.28;;
58083;SDS011;43882;51.550;11.858;2024-03-29T04:25:03;9.95;;;2.20;;
58083;SDS011;43882;51.550;11.858;2024-03-29T04:27:30;5.80;;;1.90;;
58083;SDS011;43882;51.550;11.858;2024-03-29T04:29:56;7.22;;;2.30;;
58083;SDS011;43882;51.550;11.858;2024-03-29T04:32:22;3.90;;;1.70;;
58083;SDS011;43882;51.550;11.858;2024-03-29T04:34:48;6.93;;;2.10;;
58083;SDS011;43882;51.550;11.858;2024-03-29T04:37:15;7.20;;;2.10;;
58083;SDS011;43882;51.550;11.858;2024-03-29T04:39:45;6.50;;;1.95;;
58083;SDS011;43882;51.550;11.858;2024-03-29T04:42:11;9.20;;;2.53;;
58083;SDS011;43882;51.550;11.858;2024-03-29T04:44:37;8.70;;;2.25;;
58083;SDS011;43882;51.550;11.858;2024-03-29T04:47:04;7.68;;;1.92;;
58083;SDS011;43882;51.550;11.858;2024-03-29T04:49:30;8.55;;;2.17;;
58083;SDS011;43882;51.550;11.858;2024-03-29T04:52:01;5.72;;;1.90;;
58083;SDS011;43882;51.550;11.858;2024-03-29T04:54:29;6.68;;;2.08;;
58083;SDS011;43882;51.550;11.858;2024-03-29T04:56:55;8.07;;;2.15;;
58083;SDS011;43882;51.550;11.858;2024-03-29T04:59:21;7.68;;;1.92;;
58083;SDS011;43882;51.550;11.858;2024-03-29T05:01:48;7.40;;;2.10;;
58083;SDS011;43882;51.550;11.858;2024-03-29T05:04:18;7.30;;;2.20;;
58083;SDS011;43882;51.550;11.858;2024-03-29T05:06:50;6.78;;;2.00;;
58083;SDS011;43882;51.550;11.858;2024-03-29T05:09:17;9.32;;;2.33;;
58083;SDS011;43882;51.550;11.858;2024-03-29T05:11:43;5.50;;;1.80;;
58083;SDS011;43882;51.550;11.858;2024-03-29T05:14:09;7.30;;;1.98;;
58083;SDS011;43882;51.550;11.858;2024-03-29T05:16:35;5.75;;;2.17;;
58083;SDS011;43882;51.550;11.858;2024-03-29T05:19:02;10.38;;;2.00;;
58083;SDS011;43882;51.550;11.858;2024-03-29T05:21:28;6.32;;;2.10;;
58083;SDS011;43882;51.550;11.858;2024-03-29T05:23:54;6.78;;;2.08;;
58083;SDS011;43882;51.550;11.858;2024-03-29T05:26:20;7.95;;;2.10;;
58083;SDS011;43882;51.550;11.858;2024-03-29T05:28:46;9.85;;;2.40;;
58083;SDS011;43882;51.550;11.858;2024-03-29T05:31:13;8.75;;;2.63;;
58083;SDS011;43882;51.550;11.858;2024-03-29T05:33:40;8.45;;;2.25;;
58083;SDS011;43882;51.550;11.858;2024-03-29T05:36:07;10.10;;;2.60;;
58083;SDS011;43882;51.550;11.858;2024-03-29T05:38:35;7.75;;;2.42;;
58083;SDS011;43882;51.550;11.858;2024-03-29T05:41:02;8.63;;;2.38;;
58083;SDS011;43882;51.550;11.858;2024-03-29T05:43:28;10.35;;;2.60;;
58083;SDS011;43882;51.550;11.858;2024-03-29T05:45:54;8.63;;;2.30;;
58083;SDS011;43882;51.550;11.858;2024-03-29T05:48:21;10.23;;;2.50;;
58083;SDS011;43882;51.550;11.858;2024-03-29T05:50:47;8.07;;;2.40;;
58083;SDS011;43882;51.550;11.858;2024-03-29T05:53:14;9.68;;;2.40;;
58083;SDS011;43882;51.550;11.858;2024-03-29T05:55:40;11.90;;;2.80;;
58083;SDS011;43882;51.550;11.858;2024-03-29T05:58:06;11.85;;;2.88;;
58083;SDS011;43882;51.550;11.858;2024-03-29T06:00:32;14.18;;;3.45;;
58083;SDS011;43882;51.550;11.858;2024-03-29T06:02:59;12.07;;;3.15;;
58083;SDS011;43882;51.550;11.858;2024-03-29T06:05:29;16.90;;;4.60;;
58083;SDS011;43882;51.550;11.858;2024-03-29T06:07:55;16.63;;;4.43;;
58083;SDS011;43882;51.550;11.858;2024-03-29T06:10:22;19.70;;;4.97;;
58083;SDS011;43882;51.550;11.858;2024-03-29T06:12:48;19.58;;;4.88;;
58083;SDS011;43882;51.550;11.858;2024-03-29T06:15:14;12.90;;;3.30;;
58083;SDS011;43882;51.550;11.858;2024-03-29T06:17:58;10.30;;;2.40;;
58083;SDS011;43882;51.550;11.858;2024-03-29T06:20:24;9.10;;;2.20;;
58083;SDS011;43882;51.550;11.858;2024-03-29T06:22:50;9.68;;;2.40;;
58083;SDS011;43882;51.550;11.858;2024-03-29T06:25:16;6.53;;;1.90;;
58083;SDS011;43882;51.550;11.858;2024-03-29T06:27:43;9.88;;;2.08;;
58083;SDS011;43882;51.550;11.858;2024-03-29T06:30:12;6.38;;;2.00;;
58083;SDS011;43882;51.550;11.858;2024-03-29T06:32:39;6.90;;;2.20;;
58083;SDS011;43882;51.550;11.858;2024-03-29T06:35:05;8.15;;;2.15;;
58083;SDS011;43882;51.550;11.858;2024-03-29T06:37:31;7.13;;;2.00;;
58083;SDS011;43882;51.550;11.858;2024-03-29T06:39:57;8.93;;;2.53;;
58083;SDS011;43882;51.550;11.858;2024-03-29T06:42:23;11.15;;;2.85;;
58083;SDS011;43882;51.550;11.858;2024-03-29T06:44:50;14.05;;;3.45;;
58083;SDS011;43882;51.550;11.858;2024-03-29T06:47:17;14.35;;;3.90;;
58083;SDS011;43882;51.550;11.858;2024-03-29T06:49:43;13.88;;;3.28;;
58083;SDS011;43882;51.550;11.858;2024-03-29T06:52:10;12.13;;;3.20;;
58083;SDS011;43882;51.550;11.858;2024-03-29T06:54:36;16.75;;;3.85;;
58083;SDS011;43882;51.550;11.858;2024-03-29T06:57:02;15.35;;;3.38;;
58083;SDS011;43882;51.550;11.858;2024-03-29T06:59:28;16.88;;;3.78;;
58083;SDS011;43882;51.550;11.858;2024-03-29T07:01:54;14.48;;;3.30;;
58083;SDS011;43882;51.550;11.858;2024-03-29T07:04:21;17.48;;;4.70;;
58083;SDS011;43882;51.550;11.858;2024-03-29T07:06:48;18.50;;;4.20;;
58083;SDS011;43882;51.550;11.858;2024-03-29T07:09:18;17.35;;;4.05;;
58083;SDS011;43882;51.550;11.858;2024-03-29T07:11:45;19.55;;;5.60;;
58083;SDS011;43882;51.550;11.858;2024-03-29T07:14:12;17.13;;;3.60;;
58083;SDS011;43882;51.550;11.858;2024-03-29T07:16:39;14.60;;;3.78;;
58083;SDS011;43882;51.550;11.858;2024-03-29T07:19:05;19.33;;;5.75;;
58083;SDS011;43882;51.550;11.858;2024-03-29T07:21:31;13.68;;;3.50;;
58083;SDS011;43882;51.550;11.858;2024-03-29T07:23:57;13.15;;;3.25;;
58083;SDS011;43882;51.550;11.858;2024-03-29T07:26:23;12.82;;;3.60;;
58083;SDS011;43882;51.550;11.858;2024-03-29T07:28:50;14.60;;;3.47;;
58083;SDS011;43882;51.550;11.858;2024-03-29T07:31:16;11.07;;;2.50;;
58083;SDS011;43882;51.550;11.858;2024-03-29T07:33:42;6.28;;;2.25;;
58083;SDS011;43882;51.550;11.858;2024-03-29T07:36:08;8.23;;;2.47;;
58083;SDS011;43882;51.550;11.858;2024-03-29T07:38:36;8.45;;;2.50;;
58083;SDS011;43882;51.550;11.858;2024-03-29T07:41:05;10.15;;;2.60;;
58083;SDS011;43882;51.550;11.858;2024-03-29T07:43:37;10.68;;;2.60;;
58083;SDS011;43882;51.550;11.858;2024-03-29T07:46:05;17.48;;;3.85;;
58083;SDS011;43882;51.550;11.858;2024-03-29T07:48:33;20.25;;;5.07;;
58083;SDS011;43882;51.550;11.858;2024-03-29T07:51:00;17.98;;;4.78;;
58083;SDS011;43882;51.550;11.858;2024-03-29T07:53:26;18.42;;;4.63;;
58083;SDS011;43882;51.550;11.858;2024-03-29T07:55:52;19.52;;;4.65;;
58083;SDS011;43882;51.550;11.858;2024-03-29T07:58:20;16.35;;;3.85;;
58083;SDS011;43882;51.550;11.858;2024-03-29T08:00:46;18.23;;;4.30;;
58083;SDS011;43882;51.550;11.858;2024-03-29T08:03:12;17.23;;;3.90;;
58083;SDS011;43882;51.550;11.858;2024-03-29T08:05:39;14.70;;;3.35;;
58083;SDS011;43882;51.550;11.858;2024-03-29T08:08:05;13.05;;;3.20;;
58083;SDS011;43882;51.550;11.858;2024-03-29T08:10:32;11.73;;;3.03;;
58083;SDS011;43882;51.550;11.858;2024-03-29T08:12:58;11.27;;;2.60;;
58083;SDS011;43882;51.550;11.858;2024-03-29T08:15:25;12.55;;;2.80;;
58083;SDS011;43882;51.550;11.858;2024-03-29T08:17:52;10.77;;;2.72;;
58083;SDS011;43882;51.550;11.858;2024-03-29T08:20:18;8.95;;;2.40;;
58083;SDS011;43882;51.550;11.858;2024-03-29T08:22:44;11.15;;;2.60;;
58083;SDS011;43882;51.550;11.858;2024-03-29T08:25:10;9.30;;;2.50;;
58083;SDS011;43882;51.550;11.858;2024-03-29T08:27:36;6.75;;;2.30;;
58083;SDS011;43882;51.550;11.858;2024-03-29T08:30:04;8.30;;;2.25;;
58083;SDS011;43882;51.550;11.858;2024-03-29T08:32:30;4.75;;;1.83;;
58083;SDS011;43882;51.550;11.858;2024-03-29T08:34:57;5.90;;;2.10;;
58083;SDS011;43882;51.550;11.858;2024-03-29T08:37:24;7.82;;;2.10;;
58083;SDS011;43882;51.550;11.858;2024-03-29T08:39:50;7.43;;;2.10;;
58083;SDS011;43882;51.550;11.858;2024-03-29T08:42:16;10.88;;;2.25;;
58083;SDS011;43882;51.550;11.858;2024-03-29T08:44:42;7.00;;;2.00;;
58083;SDS011;43882;51.550;11.858;2024-03-29T08:47:08;7.22;;;2.00;;
58083;SDS011;43882;51.550;11.858;2024-03-29T08:49:35;6.15;;;2.13;;
58083;SDS011;43882;51.550;11.858;2024-03-29T08:52:01;9.95;;;2.15;;
58083;SDS011;43882;51.550;11.858;2024-03-29T08:54:30;6.97;;;2.10;;
58083;SDS011;43882;51.550;11.858;2024-03-29T08:56:56;6.63;;;1.92;;
58083;SDS011;43882;51.550;11.858;2024-03-29T08:59:22;9.95;;;2.03;;
58083;SDS011;43882;51.550;11.858;2024-03-29T09:01:48;4.13;;;1.70;;
58083;SDS011;43882;51.550;11.858;2024-03-29T09:04:15;5.05;;;1.90;;
58083;SDS011;43882;51.550;11.858;2024-03-29T09:06:41;6.43;;;1.98;;
58083;SDS011;43882;51.550;11.858;2024-03-29T09:09:07;5.85;;;1.88;;
58083;SDS011;43882;51.550;11.858;2024-03-29T09:11:34;6.28;;;1.80;;
58083;SDS011;43882;51.550;11.858;2024-03-29T09:14:01;7.65;;;1.98;;
58083;SDS011;43882;51.550;11.858;2024-03-29T09:16:28;5.82;;;1.90;;
58083;SDS011;43882;51.550;11.858;2024-03-29T09:18:55;7.93;;;2.13;;
58083;SDS011;43882;51.550;11.858;2024-03-29T09:21:21;6.57;;;2.30;;
58083;SDS011;43882;51.550;11.858;2024-03-29T09:23:47;8.18;;;2.40;;
58083;SDS011;43882;51.550;11.858;2024-03-29T09:26:16;9.27;;;2.40;;
58083;SDS011;43882;51.550;11.858;2024-03-29T09:28:43;8.05;;;2.08;;
58083;SDS011;43882;51.550;11.858;2024-03-29T09:31:09;7.97;;;2.25;;
58083;SDS011;43882;51.550;11.858;2024-03-29T09:33:35;9.52;;;2.20;;
58083;SDS011;43882;51.550;11.858;2024-03-29T09:36:01;7.60;;;2.20;;
58083;SDS011;43882;51.550;11.858;2024-03-29T09:38:28;11.68;;;2.60;;
58083;SDS011;43882;51.550;11.858;2024-03-29T09:41:15;7.28;;;2.30;;
58083;SDS011;43882;51.550;11.858;2024-03-29T09:43:42;10.13;;;2.50;;
58083;SDS011;43882;51.550;11.858;2024-03-29T09:46:12;10.52;;;2.60;;
58083;SDS011;43882;51.550;11.858;2024-03-29T09:48:42;8.27;;;2.30;;
58083;SDS011;43882;51.550;11.858;2024-03-29T09:51:11;12.40;;;2.70;;
58083;SDS011;43882;51.550;11.858;2024-03-29T09:53:41;11.85;;;2.60;;
58083;SDS011;43882;51.550;11.858;2024-03-29T09:56:08;10.77;;;2.60;;
58083;SDS011;43882;51.550;11.858;2024-03-29T09:58:35;7.68;;;2.17;;
58083;SDS011;43882;51.550;11.858;2024-03-29T10:01:02;10.50;;;2.05;;
58083;SDS011;43882;51.550;11.858;2024-03-29T10:03:29;6.97;;;2.10;;
58083;SDS011;43882;51.550;11.858;2024-03-29T10:06:05;7.25;;;2.00;;
58083;SDS011;43882;51.550;11.858;2024-03-29T10:08:35;10.38;;;2.63;;
58083;SDS011;43882;51.550;11.858;2024-03-29T10:11:01;10.07;;;2.70;;
58083;SDS011;43882;51.550;11.858;2024-03-29T10:13:28;8.05;;;2.33;;
58083;SDS011;43882;51.550;11.858;2024-03-29T10:15:54;9.52;;;2.50;;
58083;SDS011;43882;51.550;11.858;2024-03-29T10:18:25;8.30;;;2.33;;
58083;SDS011;43882;51.550;11.858;2024-03-29T10:21:04;11.10;;;2.83;;
58083;SDS011;43882;51.550;11.858;2024-03-29T10:23:34;6.22;;;2.20;;
58083;SDS011;43882;51.550;11.858;2024-03-29T10:26:01;8.35;;;2.40;;
58083;SDS011;43882;51.550;11.858;2024-03-29T10:28:31;7.35;;;2.20;;
58083;SDS011;43882;51.550;11.858;2024-03-29T10:31:00;6.50;;;2.00;;
58083;SDS011;43882;51.550;11.858;2024-03-29T10:33:28;4.72;;;1.98;;
58083;SDS011;43882;51.550;11.858;2024-03-29T10:35:55;5.90;;;2.25;;
58083;SDS011;43882;51.550;11.858;2024-03-29T10:38:24;8.70;;;2.40;;
58083;SDS011;43882;51.550;11.858;2024-03-29T10:40:51;6.05;;;2.05;;
58083;SDS011;43882;51.550;11.858;2024-03-29T10:43:18;6.85;;;2.30;;
58083;SDS011;43882;51.550;11.858;2024-03-29T10:45:48;5.55;;;1.85;;
58083;SDS011;43882;51.550;11.858;2024-03-29T10:48:20;7.75;;;2.05;;
58083;SDS011;43882;51.550;11.858;2024-03-29T10:50:49;9.35;;;2.40;;
58083;SDS011;43882;51.550;11.858;2024-03-29T10:53:16;7.82;;;2.08;;
58083;SDS011;43882;51.550;11.858;2024-03-29T10:55:42;6.88;;;2.13;;
58083;SDS011;43882;51.550;11.858;2024-03-29T10:58:10;10.60;;;2.13;;
58083;SDS011;43882;51.550;11.858;2024-03-29T11:00:41;7.63;;;2.28;;
58083;SDS011;43882;51.550;11.858;2024-03-29T11:03:13;7.93;;;2.25;;
58083;SDS011;43882;51.550;11.858;2024-03-29T11:05:52;7.55;;;2.20;;
58083;SDS011;43882;51.550;11.858;2024-03-29T11:08:23;8.63;;;2.47;;
58083;SDS011;43882;51.550;11.858;2024-03-29T11:10:54;4.22;;;1.90;;
58083;SDS011;43882;51.550;11.858;2024-03-29T11:16:33;8.68;;;2.30;;
58083;SDS011;43882;51.550;11.858;2024-03-29T11:18:59;9.90;;;2.65;;
58083;SDS011;43882;51.550;11.858;2024-03-29T11:21:29;4.75;;;1.80;;
58083;SDS011;43882;51.550;11.858;2024-03-29T11:23:57;9.95;;;2.75;;
58083;SDS011;43882;51.550;11.858;2024-03-29T11:26:26;9.10;;;2.42;;
58083;SDS011;43882;51.550;11.858;2024-03-29T11:28:53;8.88;;;2.30;;
58083;SDS011;43882;51.550;11.858;2024-03-29T11:31:22;10.60;;;2.55;;
58083;SDS011;43882;51.550;11.858;2024-03-29T11:33:49;6.38;;;2.20;;
58083;SDS011;43882;51.550;11.858;2024-03-29T11:36:20;9.82;;;2.50;;
58083;SDS011;43882;51.550;11.858;2024-03-29T11:38:49;11.35;;;2.95;;
58083;SDS011;43882;51.550;11.858;2024-03-29T11:41:22;10.07;;;2.50;;
58083;SDS011;43882;51.550;11.858;2024-03-29T11:43:50;9.70;;;2.50;;
58083;SDS011;43882;51.550;11.858;2024-03-29T11:46:16;9.25;;;2.20;;
58083;SDS011;43882;51.550;11.858;2024-03-29T11:48:43;8.13;;;2.40;;
58083;SDS011;43882;51.550;11.858;2024-03-29T11:51:14;10.57;;;2.72;;
58083;SDS011;43882;51.550;11.858;2024-03-29T11:53:41;8.60;;;2.20;;
58083;SDS011;43882;51.550;11.858;2024-03-29T11:56:07;8.88;;;2.50;;
58083;SDS011;43882;51.550;11.858;2024-03-29T11:58:34;10.05;;;2.60;;
58083;SDS011;43882;51.550;11.858;2024-03-29T12:01:01;6.55;;;2.13;;
58083;SDS011;43882;51.550;11.858;2024-03-29T12:03:31;7.28;;;2.10;;
58083;SDS011;43882;51.550;11.858;2024-03-29T12:05:57;8.95;;;2.40;;
58083;SDS011;43882;51.550;11.858;2024-03-29T12:08:30;6.05;;;1.90;;
58083;SDS011;43882;51.550;11.858;2024-03-29T12:11:01;6.55;;;1.92;;
58083;SDS011;43882;51.550;11.858;2024-03-29T12:13:28;6.53;;;1.88;;
58083;SDS011;43882;51.550;11.858;2024-03-29T12:15:54;10.07;;;2.28;;
58083;SDS011;43882;51.550;11.858;2024-03-29T12:18:21;7.70;;;1.80;;
58083;SDS011;43882;51.550;11.858;2024-03-29T12:20:48;5.82;;;2.00;;
58083;SDS011;43882;51.550;11.858;2024-03-29T12:23:18;5.72;;;1.80;;
58083;SDS011;43882;51.550;11.858;2024-03-29T12:25:46;4.95;;;1.65;;
58083;SDS011;43882;51.550;11.858;2024-03-29T12:28:13;5.65;;;1.73;;
58083;SDS011;43882;51.550;11.858;2024-03-29T12:30:41;4.47;;;1.20;;
58083;SDS011;43882;51.550;11.858;2024-03-29T12:33:11;5.50;;;1.73;;
58083;SDS011;43882;51.550;11.858;2024-03-29T12:35:40;3.80;;;1.35;;
58083;SDS011;43882;51.550;11.858;2024-03-29T12:38:11;5.53;;;1.30;;
58083;SDS011;43882;51.550;11.858;2024-03-29T12:40:44;4.85;;;1.50;;
58083;SDS011;43882;51.550;11.858;2024-03-29T12:43:12;3.88;;;1.40;;
58083;SDS011;43882;51.550;11.858;2024-03-29T12:45:40;4.53;;;1.40;;
58083;SDS011;43882;51.550;11.858;2024-03-29T12:48:14;3.42;;;1.20;;
58083;SDS011;43882;51.550;11.858;2024-03-29T12:50:42;3.47;;;1.20;;
58083;SDS011;43882;51.550;11.858;2024-03-29T12:53:09;6.28;;;1.27;;
58083;SDS011;43882;51.550;11.858;2024-03-29T12:55:39;3.13;;;1.10;;
58083;SDS011;43882;51.550;11.858;2024-03-29T12:58:09;4.95;;;1.45;;
58083;SDS011;43882;51.550;11.858;2024-03-29T13:00:36;6.10;;;1.70;;
58083;SDS011;43882;51.550;11.858;2024-03-29T13:03:03;9.88;;;1.90;;
58083;SDS011;43882;51.550;11.858;2024-03-29T13:05:29;6.20;;;1.30;;
58083;SDS011;43882;51.550;11.858;2024-03-29T13:08:00;4.95;;;1.25;;
58083;SDS011;43882;51.550;11.858;2024-03-29T13:10:28;7.50;;;1.40;;
58083;SDS011;43882;51.550;11.858;2024-03-29T13:12:54;9.10;;;1.90;;
58083;SDS011;43882;51.550;11.858;2024-03-29T13:15:21;19.90;;;5.05;;
58083;SDS011;43882;51.550;11.858;2024-03-29T13:17:50;7.22;;;1.80;;
58083;SDS011;43882;51.550;11.858;2024-03-29T13:20:17;18.30;;;5.03;;
58083;SDS011;43882;51.550;11.858;2024-03-29T13:22:44;3.92;;;1.23;;
58083;SDS011;43882;51.550;11.858;2024-03-29T13:25:15;6.93;;;1.70;;
58083;SDS011;43882;51.550;11.858;2024-03-29T13:27:42;7.55;;;1.83;;
58083;SDS011;43882;51.550;11.858;2024-03-29T13:30:09;7.90;;;1.85;;
58083;SDS011;43882;51.550;11.858;2024-03-29T13:32:36;5.70;;;1.83;;
58083;SDS011;43882;51.550;11.858;2024-03-29T13:35:04;5.95;;;1.80;;
58083;SDS011;43882;51.550;11.858;2024-03-29T13:37:34;6.05;;;1.73;;
58083;SDS011;43882;51.550;11.858;2024-03-29T13:40:02;7.90;;;1.88;;
58083;SDS011;43882;51.550;11.858;2024-03-29T13:42:29;3.70;;;1.77;;
58083;SDS011;43882;51.550;11.858;2024-03-29T13:44:56;3.95;;;1.60;;
58083;SDS011;43882;51.550;11.858;2024-03-29T13:47:22;6.10;;;1.52;;
58083;SDS011;43882;51.550;11.858;2024-03-29T13:49:48;5.95;;;1.58;;
58083;SDS011;43882;51.550;11.858;2024-03-29T13:52:19;4.53;;;1.38;;
58083;SDS011;43882;51.550;11.858;2024-03-29T13:54:45;4.90;;;1.52;;
58083;SDS011;43882;51.550;11.858;2024-03-29T13:57:15;7.03;;;1.55;;
58083;SDS011;43882;51.550;11.858;2024-03-29T13:59:43;3.47;;;1.23;;
58083;SDS011;43882;51.550;11.858;2024-03-29T14:02:13;5.18;;;1.20;;
58083;SDS011;43882;51.550;11.858;2024-03-29T14:04:41;7.25;;;1.75;;
58083;SDS011;43882;51.550;11.858;2024-03-29T14:07:08;4.50;;;1.48;;
58083;SDS011;43882;51.550;11.858;2024-03-29T14:09:38;6.60;;;2.28;;
58083;SDS011;43882;51.550;11.858;2024-03-29T14:12:08;6.03;;;1.70;;
58083;SDS011;43882;51.550;11.858;2024-03-29T14:14:35;7.00;;;1.65;;
58083;SDS011;43882;51.550;11.858;2024-03-29T14:17:02;5.03;;;1.60;;
58083;SDS011;43882;51.550;11.858;2024-03-29T14:19:32;2.33;;;1.30;;
58083;SDS011;43882;51.550;11.858;2024-03-29T14:21:59;5.28;;;1.40;;
58083;SDS011;43882;51.550;11.858;2024-03-29T14:24:28;3.42;;;1.55;;
58083;SDS011;43882;51.550;11.858;2024-03-29T14:26:56;5.72;;;1.60;;
58083;SDS011;43882;51.550;11.858;2024-03-29T14:29:22;2.78;;;1.40;;
58083;SDS011;43882;51.550;11.858;2024-03-29T14:31:48;3.67;;;1.50;;
58083;SDS011;43882;51.550;11.858;2024-03-29T14:34:15;6.20;;;1.90;;